CheckWX is a tool to help pilots better visualize weather data.  It is not intended as a substitute for an official pre-flight weather briefing.

23:03:09 UTC

LOWW METAR
Vienna International Airport
Vienna, Austria
Current

43 mins ago

LOWW 192220Z VRB01KT CAVOK 20/14 Q1016 NOSIG
Observed
Jul-19 @ 22:20 UTC
Wind
  • Variable at 1 KTS
Visibility
10,000+ meters
Flight Rules
VFR
Cloud Levels
  • Clear skies
Temperature
20°C / 68°F
Dewpoint
14°C / 57°F
Humidity
69%
Altimeter
30" Hg
Pressure
1015.92 hPa
Previous

1 hour ago

LOWW 192150Z 34002KT CAVOK 20/14 Q1016 NOSIG
Observed
Jul-19 @ 21:50 UTC
Wind
  • 340° at 2 KTS
Visibility
10,000+ meters
Flight Rules
VFR
Cloud Levels
  • Clear skies
Temperature
20°C / 68°F
Dewpoint
14°C / 57°F
Humidity
69%
Altimeter
30" Hg
Pressure
1015.92 hPa
Previous

2 hours ago

LOWW 192120Z 32005KT CAVOK 21/14 Q1016 NOSIG
Observed
Jul-19 @ 21:20 UTC
Wind
  • 320° at 5 KTS
Visibility
10,000+ meters
Flight Rules
VFR
Cloud Levels
  • Clear skies
Temperature
21°C / 70°F
Dewpoint
14°C / 57°F
Humidity
64%
Altimeter
30" Hg
Pressure
1015.92 hPa